createdAt,value
2022-08-08T00:00:53.360Z,14.77
2022-08-08T00:01:06.704Z,14.73
2022-08-08T00:02:30.643Z,14.70
2022-08-08T00:02:55.295Z,14.68
2022-08-08T00:03:54.290Z,14.65
2022-08-08T00:04:55.566Z,14.64
2022-08-08T00:06:03.115Z,14.64
2022-08-08T00:06:55.227Z,14.62
2022-08-08T00:07:54.197Z,14.60
2022-08-08T00:08:54.198Z,14.61
2022-08-08T00:09:54.178Z,14.61
2022-08-08T00:10:54.517Z,14.64
2022-08-08T00:12:07.171Z,14.65
2022-08-08T00:12:56.297Z,14.68
2022-08-08T00:14:17.420Z,14.65
2022-08-08T00:14:58.932Z,14.64
2022-08-08T00:15:56.877Z,14.65
2022-08-08T00:16:54.108Z,14.62
2022-08-08T00:18:03.538Z,14.61
2022-08-08T00:18:55.246Z,14.58
2022-08-08T00:19:54.064Z,14.57
2022-08-08T00:20:54.031Z,14.57
2022-08-08T00:21:54.453Z,14.57
2022-08-08T00:22:54.002Z,14.58
2022-08-08T00:23:53.984Z,14.60
2022-08-08T00:24:54.011Z,14.60
2022-08-08T00:25:53.965Z,14.58
2022-08-08T00:26:54.046Z,14.57
2022-08-08T00:27:54.334Z,14.52
2022-08-08T00:28:53.942Z,14.52
2022-08-08T00:29:53.913Z,14.46
2022-08-08T00:31:00.623Z,14.42
2022-08-08T00:32:20.055Z,14.37
2022-08-08T00:32:55.205Z,14.35
2022-08-08T00:34:17.446Z,14.29
2022-08-08T00:34:55.021Z,14.28
2022-08-08T00:35:54.133Z,14.27
2022-08-08T00:36:54.818Z,14.25
2022-08-08T00:38:01.652Z,14.24
2022-08-08T00:38:55.853Z,14.20
2022-08-08T00:41:07.896Z,14.15
2022-08-08T00:41:09.361Z,14.17
2022-08-08T00:42:08.975Z,14.12
2022-08-08T00:42:54.765Z,14.14
2022-08-08T00:43:56.321Z,14.14
2022-08-08T00:44:55.259Z,14.17
2022-08-08T00:45:53.691Z,14.15
2022-08-08T00:46:57.001Z,14.15
2022-08-08T00:48:04.959Z,14.14
2022-08-08T00:48:59.399Z,14.14
2022-08-08T00:49:58.931Z,14.14
2022-08-08T00:50:54.061Z,14.14
2022-08-08T00:51:53.618Z,14.14
2022-08-08T00:52:53.784Z,14.12
2022-08-08T00:53:57.109Z,14.10
2022-08-08T00:54:54.585Z,14.04
2022-08-08T00:55:54.665Z,14.03
2022-08-08T00:56:53.985Z,13.99
2022-08-08T00:57:57.060Z,13.99
2022-08-08T00:58:54.751Z,13.97
2022-08-08T00:59:53.516Z,13.92
2022-08-08T01:00:53.552Z,13.92
2022-08-08T01:01:55.629Z,13.92
2022-08-08T01:03:57.338Z,13.91
2022-08-08T01:04:01.763Z,13.88
2022-08-08T01:04:54.456Z,13.85
2022-08-08T01:06:00.753Z,13.84
2022-08-08T01:07:00.253Z,13.85
2022-08-08T01:07:55.963Z,13.84
2022-08-08T01:08:53.821Z,13.84
2022-08-08T01:09:53.391Z,13.85
2022-08-08T01:10:53.366Z,13.84
2022-08-08T01:11:53.353Z,13.82
2022-08-08T01:12:53.364Z,13.81
2022-08-08T01:13:58.039Z,13.81
2022-08-08T01:14:57.461Z,13.82
2022-08-08T01:15:54.815Z,13.82
2022-08-08T01:16:53.294Z,13.84
2022-08-08T01:17:57.044Z,13.81
2022-08-08T01:18:54.811Z,13.78
2022-08-08T01:20:02.893Z,13.75
2022-08-08T01:20:54.352Z,13.75
2022-08-08T01:22:10.395Z,13.78
2022-08-08T01:22:55.759Z,13.78
2022-08-08T01:24:06.028Z,13.81
2022-08-08T01:24:54.633Z,13.82
2022-08-08T01:25:53.924Z,13.85
2022-08-08T01:26:53.180Z,13.87
2022-08-08T01:27:53.180Z,13.89
2022-08-08T01:28:54.150Z,13.88
2022-08-08T01:29:59.469Z,13.88
2022-08-08T01:30:54.592Z,13.88
2022-08-08T01:32:13.819Z,13.88
2022-08-08T01:32:54.148Z,13.85
2022-08-08T01:34:00.233Z,13.82
2022-08-08T01:34:54.078Z,13.82
2022-08-08T01:35:53.469Z,13.79
2022-08-08T01:36:54.059Z,13.77
2022-08-08T01:37:57.796Z,13.77
2022-08-08T01:38:54.042Z,13.75
2022-08-08T01:39:53.481Z,13.71
2022-08-08T01:40:53.298Z,13.71
2022-08-08T01:41:53.368Z,13.69
2022-08-08T01:42:52.967Z,13.67
2022-08-08T01:43:54.456Z,13.66
2022-08-08T01:44:53.434Z,13.64
2022-08-08T01:45:56.071Z,13.60
2022-08-08T01:46:52.923Z,13.57
2022-08-08T01:48:14.499Z,13.54
2022-08-08T01:48:53.889Z,13.54
2022-08-08T01:49:57.165Z,13.49
2022-08-08T01:50:52.861Z,13.48
2022-08-08T01:52:41.613Z,13.51
2022-08-08T01:54:33.464Z,13.51
2022-08-08T01:55:17.707Z,13.52
2022-08-08T01:55:26.622Z,13.51
2022-08-08T01:56:29.554Z,13.49
2022-08-08T01:56:53.793Z,13.48
2022-08-08T01:58:12.423Z,13.46
2022-08-08T01:58:53.788Z,13.42
2022-08-08T02:00:01.035Z,13.39
2022-08-08T02:00:57.320Z,13.38
2022-08-08T02:01:59.521Z,13.33
2022-08-08T02:02:54.143Z,13.33
2022-08-08T02:03:57.140Z,13.36
2022-08-08T02:04:53.701Z,13.33
2022-08-08T02:05:56.352Z,13.32
2022-08-08T02:06:53.683Z,13.32
2022-08-08T02:07:52.826Z,13.30
2022-08-08T02:08:54.712Z,13.30
2022-08-08T02:10:03.897Z,13.29
2022-08-08T02:10:53.612Z,13.28
2022-08-08T02:12:00.145Z,13.28
2022-08-08T02:12:53.603Z,13.26
2022-08-08T02:13:55.395Z,13.26
2022-08-08T02:14:59.124Z,13.25
2022-08-08T02:15:53.581Z,13.25
2022-08-08T02:16:52.531Z,13.26
2022-08-08T02:17:52.551Z,13.25
2022-08-08T02:18:58.716Z,13.23
2022-08-08T02:20:07.651Z,13.19
2022-08-08T02:21:02.654Z,13.14
2022-08-08T02:21:53.496Z,13.11
2022-08-08T02:22:54.881Z,13.10
2022-08-08T02:23:54.591Z,13.07
2022-08-08T02:24:52.476Z,13.04
2022-08-08T02:25:52.839Z,13.00
2022-08-08T02:26:52.403Z,12.97
2022-08-08T02:27:53.419Z,12.93
2022-08-08T02:28:52.403Z,12.93
2022-08-08T02:29:52.626Z,12.96
2022-08-08T02:30:58.168Z,13.00
2022-08-08T02:31:58.830Z,13.00
2022-08-08T02:32:53.338Z,12.96
2022-08-08T02:34:08.252Z,12.96
2022-08-08T02:35:10.753Z,12.97
2022-08-08T02:36:03.587Z,12.92
2022-08-08T02:36:54.674Z,12.90
2022-08-08T02:37:57.096Z,12.87
2022-08-08T02:38:53.275Z,12.86
2022-08-08T02:40:00.301Z,12.85
2022-08-08T02:40:53.284Z,12.85
2022-08-08T02:41:58.691Z,12.85
2022-08-08T02:43:07.417Z,12.85
2022-08-08T02:44:39.376Z,12.85
2022-08-08T02:44:57.348Z,12.86
2022-08-08T02:45:56.912Z,12.85
2022-08-08T02:46:52.186Z,12.83
2022-08-08T02:47:55.160Z,12.83
2022-08-08T02:48:52.154Z,12.82
2022-08-08T02:49:52.190Z,12.77
2022-08-08T02:50:55.773Z,12.77
2022-08-08T02:51:56.553Z,12.74
2022-08-08T02:52:53.309Z,12.72
2022-08-08T02:53:52.064Z,12.75
2022-08-08T02:54:52.152Z,12.74
2022-08-08T02:55:57.818Z,12.74
2022-08-08T02:56:53.442Z,12.71
2022-08-08T02:57:52.238Z,12.75
2022-08-08T02:58:52.029Z,12.78
2022-08-08T02:59:57.889Z,12.82
2022-08-08T03:00:53.096Z,12.83
2022-08-08T03:01:52.451Z,12.82
2022-08-08T03:02:51.972Z,12.85
2022-08-08T03:05:03.952Z,12.85
2022-08-08T03:05:04.276Z,12.86
2022-08-08T03:05:55.649Z,12.83
2022-08-08T03:06:51.904Z,12.83
2022-08-08T03:07:58.202Z,12.83
2022-08-08T03:08:52.911Z,12.83
2022-08-08T03:09:51.880Z,12.82
2022-08-08T03:10:54.004Z,12.83
2022-08-08T03:12:03.101Z,12.83
2022-08-08T03:13:01.059Z,12.83
2022-08-08T03:15:57.619Z,12.75
2022-08-08T03:15:59.072Z,12.71
2022-08-08T03:15:59.220Z,12.78
2022-08-08T03:16:52.778Z,12.70
2022-08-08T03:18:00.160Z,12.67
2022-08-08T03:18:53.241Z,12.64
2022-08-08T03:19:51.969Z,12.59
2022-08-08T03:20:52.265Z,12.56
2022-08-08T03:21:58.587Z,12.52
2022-08-08T03:22:56.635Z,12.52
2022-08-08T03:23:59.086Z,12.47
2022-08-08T03:24:52.669Z,12.41
2022-08-08T03:25:51.679Z,12.38
2022-08-08T03:26:51.635Z,12.38
2022-08-08T03:27:56.204Z,12.38
2022-08-08T03:28:52.967Z,12.37
2022-08-08T03:29:56.521Z,12.38
2022-08-08T03:31:07.937Z,12.37
2022-08-08T03:32:05.541Z,12.35
2022-08-08T03:32:59.905Z,12.35
2022-08-08T03:33:56.915Z,12.31
2022-08-08T03:34:52.545Z,12.29
2022-08-08T03:35:51.564Z,12.28
2022-08-08T03:36:51.680Z,12.23
2022-08-08T03:38:54.775Z,12.20
2022-08-08T03:38:59.014Z,12.17
2022-08-08T03:40:02.073Z,12.14
2022-08-08T03:40:53.649Z,12.13
2022-08-08T03:42:28.445Z,12.14
2022-08-08T03:42:52.433Z,12.10
2022-08-08T03:43:51.414Z,12.05
2022-08-08T03:44:52.052Z,12.01
2022-08-08T03:46:06.213Z,11.98
2022-08-08T03:46:52.381Z,11.98
2022-08-08T03:47:54.122Z,11.95
2022-08-08T03:49:38.212Z,11.98
2022-08-08T03:49:57.885Z,11.99
2022-08-08T03:50:52.328Z,12.01
2022-08-08T03:51:51.883Z,12.04
2022-08-08T03:52:51.342Z,12.05
2022-08-08T03:53:51.311Z,12.05
2022-08-08T03:55:01.596Z,12.05
2022-08-08T03:55:56.597Z,12.07
2022-08-08T03:56:52.261Z,12.07
2022-08-08T03:58:30.194Z,12.05
2022-08-08T03:58:52.240Z,12.07
2022-08-08T04:00:03.004Z,12.04
2022-08-08T04:01:01.715Z,12.07
2022-08-08T04:02:31.711Z,12.09
2022-08-08T04:02:52.611Z,12.12
2022-08-08T04:03:58.387Z,12.10
2022-08-08T04:04:52.161Z,12.10
2022-08-08T04:05:51.168Z,12.12
2022-08-08T04:06:51.485Z,12.13
2022-08-08T04:07:51.108Z,12.14
2022-08-08T04:08:51.119Z,12.12
2022-08-08T04:10:03.095Z,12.07
2022-08-08T04:10:59.790Z,12.04
2022-08-08T04:11:58.866Z,12.05
2022-08-08T04:12:52.056Z,12.09
2022-08-08T04:14:03.732Z,12.09
2022-08-08T04:14:52.046Z,12.10
2022-08-08T04:15:54.762Z,12.12
2022-08-08T04:16:51.994Z,12.13
2022-08-08T04:17:58.975Z,12.16
2022-08-08T04:18:52.407Z,12.14
2022-08-08T04:19:51.844Z,12.14
2022-08-08T04:20:50.993Z,12.14
2022-08-08T04:21:50.950Z,12.19
2022-08-08T04:22:51.320Z,12.20
2022-08-08T04:24:05.496Z,12.23
2022-08-08T04:24:51.942Z,12.24
2022-08-08T04:25:50.893Z,12.27
2022-08-08T04:26:57.410Z,12.27
2022-08-08T04:28:02.307Z,12.28
2022-08-08T04:28:54.456Z,12.27
2022-08-08T04:29:55.247Z,12.23
2022-08-08T04:30:51.829Z,12.23
2022-08-08T04:31:58.394Z,12.24
2022-08-08T04:32:51.793Z,12.24
2022-08-08T04:33:50.799Z,12.27
2022-08-08T04:34:55.882Z,12.27
2022-08-08T04:35:51.817Z,12.24
2022-08-08T04:36:50.825Z,12.24
2022-08-08T04:37:50.916Z,12.27
2022-08-08T04:39:20.322Z,12.29
2022-08-08T04:40:06.938Z,12.31
2022-08-08T04:40:54.184Z,12.35
2022-08-08T04:41:50.901Z,12.37
2022-08-08T04:42:57.380Z,12.35
2022-08-08T04:43:57.100Z,12.32
2022-08-08T04:44:51.668Z,12.31
2022-08-08T04:45:51.051Z,12.34
2022-08-08T04:46:52.460Z,12.35
2022-08-08T04:47:50.632Z,12.37
2022-08-08T04:48:50.607Z,12.38
2022-08-08T04:49:59.154Z,12.42
2022-08-08T04:50:51.900Z,12.45
2022-08-08T04:51:56.862Z,12.47
2022-08-08T04:53:00.437Z,12.49
2022-08-08T04:54:38.627Z,12.49
2022-08-08T04:54:51.506Z,12.53
2022-08-08T04:55:55.412Z,12.57
2022-08-08T04:56:51.929Z,12.65
2022-08-08T04:57:50.490Z,12.68
2022-08-08T04:58:50.840Z,12.77
2022-08-08T04:59:50.495Z,12.79
2022-08-08T05:00:51.812Z,12.83
2022-08-08T05:01:50.507Z,12.87
2022-08-08T05:02:53.228Z,12.92
2022-08-08T05:04:11.479Z,12.95
2022-08-08T05:04:51.387Z,13.00
2022-08-08T05:05:53.458Z,13.03
2022-08-08T05:06:52.349Z,13.05
2022-08-08T05:07:50.366Z,13.08
2022-08-08T05:08:51.938Z,13.10
2022-08-08T05:09:50.325Z,13.12
2022-08-08T05:10:50.327Z,13.17
2022-08-08T05:11:57.314Z,13.20
2022-08-08T05:13:00.222Z,13.23
2022-08-08T05:13:58.036Z,13.28
2022-08-08T05:14:52.349Z,13.28
2022-08-08T05:16:53.003Z,13.30
2022-08-08T05:17:01.173Z,13.33
2022-08-08T05:17:53.735Z,13.39
2022-08-08T05:18:50.194Z,13.42
2022-08-08T05:20:08.983Z,13.44
2022-08-08T05:20:52.214Z,13.46
2022-08-08T05:21:59.501Z,13.49
2022-08-08T05:22:51.149Z,13.52
2022-08-08T05:23:50.144Z,13.57
2022-08-08T05:24:51.443Z,13.59
2022-08-08T05:25:50.152Z,13.62
2022-08-08T05:26:50.112Z,13.64
2022-08-08T05:27:50.084Z,13.67
2022-08-08T05:28:57.150Z,13.70
2022-08-08T05:29:52.245Z,13.71
2022-08-08T05:30:50.432Z,13.75
2022-08-08T05:32:05.535Z,13.81
2022-08-08T05:32:51.065Z,13.87
2022-08-08T05:33:50.035Z,13.89
2022-08-08T05:34:49.992Z,13.96
2022-08-08T05:35:53.984Z,14.00
2022-08-08T05:36:50.399Z,14.04
2022-08-08T05:37:52.645Z,14.09
2022-08-08T05:38:49.940Z,14.14
2022-08-08T05:39:50.129Z,14.17
2022-08-08T05:40:52.292Z,14.20
2022-08-08T05:41:55.158Z,14.25
2022-08-08T05:42:50.879Z,14.32
2022-08-08T05:44:03.272Z,14.36
2022-08-08T05:44:51.488Z,14.43
2022-08-08T05:45:54.943Z,14.47
2022-08-08T05:46:51.393Z,14.52
2022-08-08T05:48:00.116Z,14.54
2022-08-08T05:48:52.680Z,14.58
2022-08-08T05:49:54.338Z,14.61
2022-08-08T05:50:50.786Z,14.68
2022-08-08T05:51:50.778Z,14.72
2022-08-08T05:52:50.196Z,14.78
2022-08-08T05:54:25.658Z,14.88
2022-08-08T05:54:53.569Z,14.94
2022-08-08T05:56:11.655Z,14.99
2022-08-08T05:56:50.710Z,15.07
2022-08-08T05:58:05.530Z,15.10
2022-08-08T05:58:53.808Z,15.17
2022-08-08T05:59:58.658Z,15.21
2022-08-08T06:00:56.912Z,15.25
2022-08-08T06:01:56.986Z,15.29
2022-08-08T06:02:51.022Z,15.35
2022-08-08T06:03:53.684Z,15.39
2022-08-08T06:04:51.543Z,15.47
2022-08-08T06:05:51.910Z,15.51
2022-08-08T06:06:50.355Z,15.56
2022-08-08T06:07:49.546Z,15.62
2022-08-08T06:08:54.627Z,15.68
2022-08-08T06:10:01.312Z,15.75
2022-08-08T06:10:50.497Z,15.82
2022-08-08T06:11:49.615Z,15.90
2022-08-08T06:12:49.559Z,16.25
2022-08-08T06:13:49.603Z,17.01
2022-08-08T06:14:49.893Z,17.79
2022-08-08T06:15:50.621Z,18.33
2022-08-08T06:16:52.042Z,18.92
2022-08-08T06:18:18.094Z,19.55
2022-08-08T06:18:50.439Z,20.16
2022-08-08T06:19:49.380Z,20.62
2022-08-08T06:20:50.382Z,21.04
2022-08-08T06:21:56.901Z,21.32
2022-08-08T06:22:50.382Z,21.68
2022-08-08T06:24:02.310Z,21.91
2022-08-08T06:24:51.230Z,21.92
2022-08-08T06:26:38.160Z,22.06
2022-08-08T06:26:52.258Z,22.27
2022-08-08T06:27:56.373Z,22.45
2022-08-08T06:28:56.318Z,22.75
2022-08-08T06:33:18.193Z,23.17
2022-08-08T06:34:27.671Z,22.85
2022-08-08T06:36:08.477Z,22.54
2022-08-08T06:36:25.831Z,22.57
2022-08-08T06:37:25.601Z,22.61
2022-08-08T06:38:28.866Z,22.76
2022-08-08T06:39:25.813Z,23.05
2022-08-08T06:40:27.041Z,23.39
2022-08-08T06:41:24.855Z,23.22
2022-08-08T06:42:25.042Z,22.85
2022-08-08T06:43:17.700Z,22.60
2022-08-08T06:44:25.492Z,22.70
2022-08-08T06:45:24.656Z,22.88
2022-08-08T06:46:17.708Z,23.09
2022-08-08T06:47:31.571Z,23.50
2022-08-08T06:49:56.236Z,24.62
2022-08-08T06:50:38.589Z,25.18
2022-08-08T06:51:31.366Z,25.64
2022-08-08T06:52:34.881Z,26.01
2022-08-08T06:53:39.207Z,26.29
2022-08-08T06:54:29.185Z,26.65
2022-08-08T06:55:27.762Z,26.50
2022-08-08T06:56:29.092Z,26.36
2022-08-08T06:57:29.316Z,26.21
2022-08-08T06:58:30.322Z,26.36
2022-08-08T06:59:27.683Z,26.69
2022-08-08T07:00:29.828Z,26.95
2022-08-08T07:02:27.502Z,26.97
2022-08-08T07:02:29.708Z,26.81
2022-08-08T07:03:52.475Z,26.82
2022-08-08T07:04:37.675Z,27.06
2022-08-08T07:05:30.113Z,27.21
2022-08-08T07:06:28.585Z,27.47
2022-08-08T07:07:27.864Z,27.67
2022-08-08T07:08:28.590Z,27.77
2022-08-08T07:09:41.440Z,27.87
2022-08-08T07:10:28.573Z,27.18
2022-08-08T07:11:27.964Z,26.72
2022-08-08T07:12:30.486Z,26.23
2022-08-08T07:13:27.533Z,25.72
2022-08-08T07:14:27.495Z,25.50
2022-08-08T07:15:40.985Z,25.38
2022-08-08T07:16:28.954Z,24.96
2022-08-08T07:17:40.343Z,24.77
2022-08-08T07:18:36.725Z,24.76
2022-08-08T07:19:28.425Z,24.91
2022-08-08T07:20:28.277Z,25.43
2022-08-08T07:21:27.874Z,25.88
2022-08-08T07:22:27.471Z,25.92
2022-08-08T07:23:27.376Z,25.83
2022-08-08T07:24:27.367Z,25.91
2022-08-08T07:25:29.374Z,26.28
2022-08-08T07:26:29.031Z,26.30
2022-08-08T07:27:35.534Z,25.90
2022-08-08T07:28:31.343Z,25.72
2022-08-08T07:30:00.232Z,25.57
2022-08-08T07:30:28.345Z,25.51
2022-08-08T07:31:27.316Z,25.75
2022-08-08T07:32:27.265Z,26.09
2022-08-08T07:33:27.637Z,26.35
2022-08-08T07:34:31.829Z,26.40
2022-08-08T07:35:27.257Z,26.69
2022-08-08T07:36:27.236Z,26.72
2022-08-08T07:37:27.301Z,26.85
2022-08-08T07:38:28.581Z,26.82
2022-08-08T07:39:29.423Z,26.80
2022-08-08T07:40:29.185Z,26.63
2022-08-08T07:41:28.195Z,26.70
2022-08-08T07:42:32.952Z,26.97
2022-08-08T07:43:35.351Z,27.40
2022-08-08T07:44:40.266Z,27.49
2022-08-08T07:45:34.649Z,27.66
2022-08-08T07:46:30.580Z,27.85
2022-08-08T07:47:38.159Z,28.14
2022-08-08T07:48:30.036Z,28.22
2022-08-08T07:49:27.477Z,28.44
2022-08-08T07:50:27.046Z,28.80
2022-08-08T07:51:44.759Z,28.93
2022-08-08T07:52:28.046Z,29.23
2022-08-08T07:54:02.480Z,29.57
2022-08-08T07:54:28.417Z,29.94
2022-08-08T07:55:28.800Z,30.24
2022-08-08T07:56:37.122Z,30.61
2022-08-08T07:57:28.132Z,30.57
2022-08-08T07:58:26.968Z,30.08
2022-08-08T07:59:26.939Z,29.95
2022-08-08T08:00:28.393Z,29.60
2022-08-08T08:02:32.480Z,29.52
2022-08-08T08:02:34.683Z,29.79
2022-08-08T08:03:28.420Z,30.00
2022-08-08T08:04:26.867Z,29.61
2022-08-08T08:05:33.365Z,29.61
2022-08-08T08:06:28.156Z,29.15
2022-08-08T08:07:32.121Z,28.73
2022-08-08T08:08:27.883Z,28.89
2022-08-08T08:09:26.847Z,29.15
2022-08-08T08:10:30.184Z,29.64
2022-08-08T08:11:33.882Z,30.15
2022-08-08T08:12:35.487Z,30.29
2022-08-08T08:14:06.135Z,30.02
2022-08-08T08:14:27.749Z,30.11
2022-08-08T08:15:26.766Z,29.89
2022-08-08T08:16:27.747Z,29.49
2022-08-08T08:17:36.480Z,29.46
2022-08-08T08:18:32.074Z,29.49
2022-08-08T08:19:26.719Z,29.48
2022-08-08T08:20:29.734Z,29.82
2022-08-08T08:21:44.924Z,29.97
2022-08-08T08:22:33.430Z,29.87
2022-08-08T08:23:27.746Z,29.87
2022-08-08T08:24:30.906Z,29.85
2022-08-08T08:25:42.090Z,29.68
2022-08-08T08:26:28.510Z,29.79
2022-08-08T08:27:26.609Z,29.74
2022-08-08T08:28:26.587Z,29.85
2022-08-08T08:29:28.008Z,30.23
2022-08-08T08:30:27.008Z,30.49
2022-08-08T08:31:26.560Z,30.32
2022-08-08T08:32:35.929Z,30.01
2022-08-08T08:33:27.537Z,29.86
2022-08-08T08:34:31.805Z,29.64
2022-08-08T08:35:30.014Z,29.60
2022-08-08T08:36:27.624Z,29.18
2022-08-08T08:37:30.401Z,28.34
2022-08-08T08:38:26.498Z,28.14
2022-08-08T08:39:59.645Z,27.90
2022-08-08T08:40:27.504Z,28.02
2022-08-08T08:41:26.948Z,28.07
2022-08-08T08:42:29.512Z,27.94
2022-08-08T08:43:28.919Z,27.39
2022-08-08T08:44:30.567Z,26.95
2022-08-08T08:45:26.829Z,26.70
2022-08-08T08:46:26.356Z,26.65
2022-08-08T08:47:26.367Z,26.65
2022-08-08T08:48:26.357Z,26.63
2022-08-08T08:49:30.689Z,26.52
2022-08-08T08:50:33.878Z,26.13
2022-08-08T08:51:27.338Z,25.98
2022-08-08T08:52:28.733Z,25.80
2022-08-08T08:53:27.728Z,25.77
2022-08-08T08:54:27.288Z,25.76
2022-08-08T08:55:28.528Z,25.77
2022-08-08T08:56:27.680Z,25.77
2022-08-08T08:57:26.349Z,25.69
2022-08-08T08:58:26.229Z,25.75
2022-08-08T08:59:58.878Z,25.76
2022-08-08T09:00:35.494Z,25.83
2022-08-08T09:01:27.984Z,25.80
2022-08-08T09:02:26.289Z,25.73
2022-08-08T09:03:31.400Z,25.80
2022-08-08T09:04:30.111Z,25.82
2022-08-08T09:05:49.167Z,25.88
2022-08-08T09:06:33.217Z,25.83
2022-08-08T09:07:38.740Z,25.58
2022-08-08T09:08:27.128Z,25.36
2022-08-08T09:09:39.061Z,25.27
2022-08-08T09:10:28.175Z,25.25
2022-08-08T09:11:26.455Z,25.30
2022-08-08T09:12:27.361Z,25.39
2022-08-08T09:13:28.074Z,25.38
2022-08-08T09:14:26.137Z,25.42
2022-08-08T09:15:41.049Z,25.61
2022-08-08T09:16:28.903Z,25.75
2022-08-08T09:17:40.666Z,25.77
2022-08-08T09:18:26.997Z,25.83
2022-08-08T09:19:40.483Z,25.87
2022-08-08T09:21:59.247Z,25.88
2022-08-08T09:21:59.850Z,25.95
2022-08-08T09:22:27.408Z,25.97
2022-08-08T09:23:33.286Z,25.98
2022-08-08T09:24:26.937Z,25.80
2022-08-08T09:25:35.547Z,25.58
2022-08-08T09:26:32.359Z,25.61
2022-08-08T09:27:55.917Z,25.61
2022-08-08T09:28:38.448Z,25.64
2022-08-08T09:29:26.865Z,25.72
2022-08-08T09:30:25.798Z,25.87
2022-08-08T09:31:25.817Z,25.97
2022-08-08T09:32:31.123Z,26.13
2022-08-08T09:34:14.773Z,26.15
2022-08-08T09:34:32.187Z,26.20
2022-08-08T09:35:32.301Z,26.26
2022-08-08T09:36:27.079Z,26.32
2022-08-08T09:37:57.336Z,26.32
2022-08-08T09:38:27.686Z,26.36
2022-08-08T09:39:25.755Z,26.32
2022-08-08T09:40:43.195Z,26.29
2022-08-08T09:41:26.678Z,26.13
2022-08-08T09:42:26.700Z,26.10
2022-08-08T09:44:05.479Z,26.10
2022-08-08T09:44:29.730Z,26.07
2022-08-08T09:45:55.450Z,26.26
2022-08-08T09:46:31.155Z,26.43
2022-08-08T09:48:04.054Z,26.54
2022-08-08T09:48:33.698Z,26.58
2022-08-08T09:49:42.249Z,26.58
2022-08-08T09:50:26.604Z,26.62
2022-08-08T09:51:25.748Z,26.43
2022-08-08T09:52:54.182Z,26.30
2022-08-08T09:53:53.129Z,26.33
2022-08-08T09:54:36.596Z,26.47
2022-08-08T09:56:02.786Z,26.55
2022-08-08T09:56:27.902Z,26.65
2022-08-08T09:57:25.483Z,26.77
2022-08-08T09:58:27.885Z,26.95
2022-08-08T09:59:57.187Z,26.94
2022-08-08T10:00:50.106Z,26.85
2022-08-08T10:01:59.712Z,26.84
2022-08-08T10:02:29.305Z,26.72
2022-08-08T10:03:25.395Z,26.75
2022-08-08T10:04:41.490Z,26.94
2022-08-08T10:05:26.416Z,27.02
2022-08-08T10:06:29.701Z,26.94
2022-08-08T10:07:26.335Z,26.87
2022-08-08T10:08:26.369Z,26.87
2022-08-08T10:09:25.297Z,26.63
2022-08-08T10:10:30.076Z,26.51
2022-08-08T10:12:27.983Z,26.44
2022-08-08T10:12:36.077Z,26.40
2022-08-08T10:13:35.520Z,26.52
2022-08-08T10:14:28.667Z,26.69
2022-08-08T10:15:26.263Z,26.85
2022-08-08T10:16:26.917Z,27.04
2022-08-08T10:18:07.442Z,27.17
2022-08-08T10:18:26.919Z,27.34
2022-08-08T10:19:25.206Z,27.51
2022-08-08T10:20:27.866Z,27.66
2022-08-08T10:21:33.108Z,27.78
2022-08-08T10:22:26.135Z,27.78
2022-08-08T10:23:41.809Z,27.69
2022-08-08T10:24:28.699Z,27.62
2022-08-08T10:25:25.225Z,27.70
2022-08-08T10:26:30.684Z,27.54
2022-08-08T10:27:26.076Z,27.39
2022-08-08T10:28:25.526Z,27.50
2022-08-08T10:29:30.603Z,27.65
2022-08-08T10:30:57.258Z,27.49
2022-08-08T10:31:46.674Z,27.44
2022-08-08T10:32:26.020Z,27.40
2022-08-08T10:33:24.983Z,27.27
2022-08-08T10:34:27.449Z,27.41
2022-08-08T10:36:09.375Z,27.62
2022-08-08T10:36:26.385Z,27.69
2022-08-08T10:37:24.933Z,27.67
2022-08-08T10:38:24.956Z,27.65
2022-08-08T10:39:31.818Z,27.70
2022-08-08T10:40:26.016Z,27.65
2022-08-08T10:41:26.082Z,27.75
2022-08-08T10:42:27.436Z,27.88
2022-08-08T10:43:24.894Z,28.03
2022-08-08T10:44:25.871Z,28.24
2022-08-08T10:45:24.886Z,28.40
2022-08-08T10:46:30.378Z,28.58
2022-08-08T10:47:26.175Z,28.62
2022-08-08T10:48:25.836Z,28.77
2022-08-08T10:49:26.952Z,29.04
2022-08-08T10:50:25.778Z,29.19
2022-08-08T10:51:26.066Z,29.28
2022-08-08T10:52:28.133Z,29.42
2022-08-08T10:53:56.914Z,29.37
2022-08-08T10:54:26.923Z,29.14
2022-08-08T10:55:39.480Z,28.66
2022-08-08T10:56:27.432Z,28.22
2022-08-08T10:57:41.421Z,27.84
2022-08-08T10:58:25.684Z,27.81
2022-08-08T10:59:24.672Z,27.50
2022-08-08T11:00:25.919Z,27.46
2022-08-08T11:01:24.697Z,27.60
2022-08-08T11:02:25.326Z,27.70
2022-08-08T11:03:52.353Z,27.74
2022-08-08T11:04:29.898Z,27.96
2022-08-08T11:05:25.593Z,28.19
2022-08-08T11:06:25.595Z,28.37
2022-08-08T11:08:30.064Z,28.56
2022-08-08T11:08:31.937Z,28.80
2022-08-08T11:09:25.556Z,28.98
2022-08-08T11:10:28.827Z,29.02
2022-08-08T11:11:32.415Z,28.90
2022-08-08T11:12:28.640Z,28.80
2022-08-08T11:13:28.063Z,28.70
2022-08-08T11:14:26.376Z,28.46
2022-08-08T11:15:24.455Z,28.22
2022-08-08T11:16:32.126Z,28.34
2022-08-08T11:18:00.017Z,28.44
2022-08-08T11:18:25.405Z,28.33
2022-08-08T11:19:24.415Z,28.03
2022-08-08T11:20:27.732Z,27.81
2022-08-08T11:21:24.396Z,27.72
2022-08-08T11:22:25.365Z,27.54
2022-08-08T11:23:24.346Z,27.39
2022-08-08T11:24:25.335Z,27.29
2022-08-08T11:25:51.857Z,27.22
2022-08-08T11:26:28.149Z,27.24
2022-08-08T11:27:24.298Z,27.40
2022-08-08T11:28:25.722Z,27.34
2022-08-08T11:29:41.658Z,27.50
2022-08-08T11:30:27.519Z,27.67
2022-08-08T11:31:25.622Z,27.84
2022-08-08T11:32:29.426Z,27.94
2022-08-08T11:33:51.194Z,28.02
2022-08-08T11:34:41.897Z,27.94
2022-08-08T11:35:37.801Z,27.66
2022-08-08T11:36:27.768Z,27.49
2022-08-08T11:38:34.591Z,27.49
2022-08-08T11:38:35.386Z,27.44
2022-08-08T11:39:25.306Z,27.43
2022-08-08T11:40:26.815Z,27.59
2022-08-08T11:41:24.802Z,27.70
2022-08-08T11:42:26.800Z,27.90
2022-08-08T11:43:24.605Z,28.09
2022-08-08T11:44:28.920Z,28.29
2022-08-08T11:45:25.094Z,28.48
2022-08-08T11:46:24.392Z,28.66
2022-08-08T11:47:24.095Z,28.59
2022-08-08T11:48:27.853Z,28.54
2022-08-08T11:49:24.035Z,28.58
2022-08-08T11:50:24.033Z,28.73
2022-08-08T11:51:38.333Z,28.77
2022-08-08T11:52:29.074Z,28.74
2022-08-08T11:53:24.965Z,28.78
2022-08-08T11:54:31.040Z,28.86
2022-08-08T11:55:25.121Z,28.95
2022-08-08T11:56:23.974Z,29.02
2022-08-08T11:57:27.583Z,29.16
2022-08-08T11:58:24.924Z,29.05
2022-08-08T11:59:57.726Z,29.05
2022-08-08T12:00:24.885Z,29.14
2022-08-08T12:01:23.854Z,29.26
2022-08-08T12:02:32.774Z,29.34
2022-08-08T12:03:24.881Z,29.15
2022-08-08T12:04:24.855Z,28.95
2022-08-08T12:05:24.848Z,28.67
2022-08-08T12:06:23.795Z,28.67
2022-08-08T12:07:23.795Z,28.80
2022-08-08T12:08:31.654Z,28.88
2022-08-08T12:09:23.945Z,29.00
2022-08-08T12:10:23.760Z,28.98
2022-08-08T12:11:28.525Z,28.81
2022-08-08T12:12:28.538Z,28.96
2022-08-08T12:13:37.742Z,29.14
2022-08-08T12:14:28.946Z,29.31
2022-08-08T12:15:23.696Z,29.42
2022-08-08T12:16:30.321Z,29.52
2022-08-08T12:17:24.668Z,29.67
2022-08-08T12:18:24.758Z,29.86
2022-08-08T12:19:37.814Z,29.95
2022-08-08T12:20:24.631Z,30.10
2022-08-08T12:21:25.799Z,30.16
2022-08-08T12:22:24.605Z,30.19
2022-08-08T12:23:30.655Z,30.24
2022-08-08T12:24:28.256Z,30.05
2022-08-08T12:25:24.733Z,29.79
2022-08-08T12:26:28.617Z,29.83
2022-08-08T12:27:26.682Z,29.76
2022-08-08T12:28:23.926Z,29.70
2022-08-08T12:29:25.866Z,29.76
2022-08-08T12:30:24.983Z,29.86
2022-08-08T12:31:23.603Z,29.95
2022-08-08T12:32:23.460Z,29.98
2022-08-08T12:33:23.764Z,29.97
2022-08-08T12:34:24.454Z,30.04
2022-08-08T12:35:24.454Z,30.05
2022-08-08T12:36:23.414Z,30.04
2022-08-08T12:37:25.885Z,29.98
2022-08-08T12:38:31.471Z,29.79
2022-08-08T12:39:24.382Z,29.30
2022-08-08T12:40:24.781Z,29.16
2022-08-08T12:41:33.672Z,29.00
2022-08-08T12:42:27.453Z,28.96
2022-08-08T12:43:24.333Z,28.86
2022-08-08T12:44:30.402Z,28.77
2022-08-08T12:45:58.422Z,28.74
2022-08-08T12:46:26.404Z,28.73
2022-08-08T12:47:33.351Z,28.59
2022-08-08T12:48:36.892Z,28.54
2022-08-08T12:49:40.464Z,28.64
2022-08-08T12:50:25.805Z,28.67
2022-08-08T12:51:23.214Z,28.77
2022-08-08T12:52:28.957Z,28.95
2022-08-08T12:53:24.851Z,29.00
2022-08-08T12:54:25.633Z,28.96
2022-08-08T12:55:35.603Z,29.08
2022-08-08T12:56:24.392Z,29.31